Time;durP1;ratioP1;P1;durP2;ratioP2;P2;SDS_P1;SDS_P2;PMS_P1;PMS_P2;Temp;Humidity;BMP_temperature;BMP_pressure;BME280_temperature;BME280_humidity;BME280_pressure;Samples;Min_cycle;Max_cycle;Signal;HPM_P1;HPM_P2
2022/11/25 00:02:16;;;;;;;16.58;4.47;;;6.60;99.90;;;;;;5108987;27;20055;-85
2022/11/25 00:04:41;;;;;;;14.63;4.60;;;6.60;99.90;;;;;;5106324;28;20051;-85
2022/11/25 00:07:07;;;;;;;11.93;4.43;;;6.70;99.90;;;;;;5106427;28;20107;-84
2022/11/25 00:09:32;;;;;;;14.60;4.72;;;6.70;99.90;;;;;;5103086;28;20166;-86
2022/11/25 00:11:58;;;;;;;11.60;4.20;;;6.70;99.90;;;;;;5122962;27;20046;-84
2022/11/25 00:14:24;;;;;;;16.83;4.63;;;6.70;99.90;;;;;;5108706;28;20035;-85
2022/11/25 00:16:49;;;;;;;15.57;3.90;;;6.90;99.90;;;;;;5109166;27;20105;-85
2022/11/25 00:19:15;;;;;;;13.85;4.07;;;6.70;99.90;;;;;;5107349;28;20126;-85
2022/11/25 00:21:41;;;;;;;13.30;4.00;;;6.70;99.90;;;;;;5109491;28;20048;-85
2022/11/25 00:24:07;;;;;;;11.98;5.00;;;6.70;99.90;;;;;;5106019;28;20067;-86
2022/11/25 00:26:34;;;;;;;15.82;4.53;;;6.70;99.90;;;;;;5108939;28;20066;-85
2022/11/25 00:29:03;;;;;;;13.85;4.55;;;6.80;99.90;;;;;;5110306;28;20050;-85
2022/11/25 00:31:34;;;;;;;14.25;4.90;;;6.70;99.90;;;;;;5109274;28;20114;-86
2022/11/25 00:34:01;;;;;;;18.33;4.70;;;6.70;99.90;;;;;;5119147;27;20047;-85
2022/11/25 00:36:29;;;;;;;14.55;4.85;;;6.80;99.90;;;;;;5109249;28;20099;-85
2022/11/25 00:39:23;;;;;;;12.43;4.10;;;6.80;99.90;;;;;;5103887;28;20088;-86
2022/11/25 00:44:35;;;;;;;16.65;4.05;;;6.90;99.90;;;;;;5106447;28;20039;-85
2022/11/25 00:47:21;;;;;;;12.82;4.32;;;6.90;99.90;;;;;;5110135;28;20044;-85
2022/11/25 00:49:52;;;;;;;16.77;5.05;;;6.90;99.90;;;;;;5090459;28;20079;-86
2022/11/25 00:52:27;;;;;;;14.35;4.72;;;6.90;99.90;;;;;;5105952;28;20047;-85
2022/11/25 00:54:53;;;;;;;16.15;4.78;;;7.00;99.90;;;;;;5089244;28;20039;-84
2022/11/25 00:57:21;;;;;;;14.82;4.10;;;6.90;99.90;;;;;;5108216;28;20051;-85
2022/11/25 00:59:47;;;;;;;15.07;4.18;;;7.00;99.90;;;;;;5110019;28;20069;-85
2022/11/25 01:02:14;;;;;;;17.70;4.30;;;7.00;99.90;;;;;;5122403;27;20059;-86
2022/11/25 01:04:40;;;;;;;13.10;4.00;;;7.00;99.90;;;;;;5103532;28;20135;-85
2022/11/25 01:07:06;;;;;;;16.65;3.90;;;7.00;99.90;;;;;;5108803;28;20122;-85
2022/11/25 01:09:33;;;;;;;14.88;4.68;;;7.10;99.90;;;;;;5107046;28;20050;-85
2022/11/25 01:11:59;;;;;;;12.57;4.07;;;7.00;99.90;;;;;;5106528;28;20043;-85
2022/11/25 01:14:25;;;;;;;13.60;5.45;;;7.00;99.90;;;;;;5104353;28;20046;-85
2022/11/25 01:16:51;;;;;;;17.48;5.07;;;7.00;99.90;;;;;;5124228;27;20044;-85
2022/11/25 01:19:17;;;;;;;13.32;3.72;;;7.00;99.90;;;;;;5091460;28;20043;-85
2022/11/25 01:21:43;;;;;;;15.20;4.28;;;7.10;99.90;;;;;;5105969;28;20130;-85
2022/11/25 01:24:11;;;;;;;17.58;4.45;;;7.10;99.90;;;;;;5107340;28;20189;-85
2022/11/25 01:26:36;;;;;;;14.88;4.47;;;7.00;99.90;;;;;;5100302;28;20040;-85
2022/11/25 01:29:05;;;;;;;13.00;3.95;;;7.00;99.90;;;;;;5108107;28;20035;-85
2022/11/25 01:31:34;;;;;;;15.00;4.43;;;7.00;99.90;;;;;;5104655;28;20497;-85
2022/11/25 01:34:11;;;;;;;13.20;4.10;;;7.10;99.90;;;;;;5104194;27;20550;-85
2022/11/25 01:36:37;;;;;;;9.57;3.83;;;7.10;99.90;;;;;;5090368;28;20144;-86
2022/11/25 01:39:03;;;;;;;12.65;3.97;;;7.10;99.90;;;;;;5105354;27;20075;-85
2022/11/25 01:41:31;;;;;;;13.35;3.63;;;7.10;99.90;;;;;;5105718;28;20066;-86
2022/11/25 01:44:15;;;;;;;16.92;4.53;;;7.10;99.90;;;;;;5089585;28;20047;-86
2022/11/25 01:46:50;;;;;;;10.15;3.65;;;7.10;99.90;;;;;;5105975;28;20051;-85
2022/11/25 01:49:36;;;;;;;10.10;3.63;;;7.20;99.90;;;;;;5108037;28;20047;-86
2022/11/25 01:52:31;;;;;;;15.07;4.22;;;7.20;99.90;;;;;;5102727;28;20050;-84
2022/11/25 01:55:09;;;;;;;13.02;4.07;;;7.20;99.90;;;;;;5106253;28;20437;-84
2022/11/25 01:57:44;;;;;;;12.10;3.72;;;7.20;99.90;;;;;;5106890;27;20100;-84
2022/11/25 02:00:11;;;;;;;16.52;4.10;;;7.30;99.90;;;;;;5106408;28;20047;-84
2022/11/25 02:02:36;;;;;;;13.90;3.88;;;7.30;99.90;;;;;;5103800;28;20075;-85
2022/11/25 02:05:07;;;;;;;21.35;5.57;;;7.20;99.90;;;;;;5105397;28;20098;-85
2022/11/25 02:07:39;;;;;;;16.85;4.60;;;7.30;99.90;;;;;;5104104;27;20043;-85
2022/11/25 02:10:10;;;;;;;16.88;4.72;;;7.20;99.90;;;;;;5103882;28;20035;-85
2022/11/25 02:12:39;;;;;;;12.43;3.88;;;7.20;99.90;;;;;;5094491;28;20043;-85
2022/11/25 02:15:05;;;;;;;10.13;4.32;;;7.30;99.90;;;;;;5103780;28;20119;-85
2022/11/25 02:17:31;;;;;;;18.08;5.03;;;7.30;99.90;;;;;;5105872;28;20104;-85
2022/11/25 02:20:09;;;;;;;16.17;5.30;;;7.30;99.90;;;;;;5107810;28;20051;-85
2022/11/25 02:22:43;;;;;;;18.13;4.43;;;7.30;99.90;;;;;;5106666;28;20504;-85
2022/11/25 02:25:28;;;;;;;14.38;4.65;;;7.20;99.90;;;;;;5105240;28;20093;-85
2022/11/25 02:28:07;;;;;;;16.08;4.85;;;7.30;99.90;;;;;;5106029;28;20047;-84
2022/11/25 02:30:33;;;;;;;12.07;5.30;;;7.20;99.90;;;;;;5101509;28;20050;-84
2022/11/25 02:33:00;;;;;;;13.05;5.45;;;7.20;99.90;;;;;;5096103;28;20606;-85
2022/11/25 02:35:33;;;;;;;15.95;5.18;;;7.20;99.90;;;;;;5106426;28;20131;-85
2022/11/25 02:38:17;;;;;;;16.52;5.47;;;7.20;99.90;;;;;;5106124;28;20131;-85
2022/11/25 02:40:56;;;;;;;13.75;4.90;;;7.20;99.90;;;;;;5101882;28;20040;-84
2022/11/25 02:43:21;;;;;;;18.35;5.65;;;7.30;99.90;;;;;;5107727;28;20047;-85
2022/11/25 02:46:05;;;;;;;14.13;4.80;;;7.30;99.90;;;;;;5090151;28;20036;-85
2022/11/25 02:48:33;;;;;;;17.13;5.00;;;7.30;99.90;;;;;;5103267;28;20052;-84
2022/11/25 02:50:59;;;;;;;14.20;5.40;;;7.30;99.90;;;;;;5107526;28;20141;-84
2022/11/25 02:53:25;;;;;;;18.63;5.30;;;7.30;99.90;;;;;;5105711;28;20044;-85
2022/11/25 02:55:51;;;;;;;12.90;5.10;;;8.00;99.90;;;;;;5107811;28;20039;-84
2022/11/25 02:58:17;;;;;;;16.48;5.03;;;7.30;99.90;;;;;;5105999;28;20051;-84
2022/11/25 03:00:44;;;;;;;16.65;4.93;;;7.30;99.90;;;;;;5106434;28;20039;-84
2022/11/25 03:03:10;;;;;;;17.20;5.68;;;7.40;99.90;;;;;;5103450;28;20051;-85
2022/11/25 03:05:36;;;;;;;15.57;5.43;;;7.40;99.90;;;;;;5104178;28;20035;-84
2022/11/25 03:08:02;;;;;;;19.63;5.43;;;7.30;99.90;;;;;;5104361;28;20091;-84
2022/11/25 03:10:28;;;;;;;15.05;5.55;;;7.40;99.90;;;;;;5107031;28;20082;-85
2022/11/25 03:12:53;;;;;;;14.23;5.40;;;7.40;99.90;;;;;;5104204;28;20071;-84
2022/11/25 03:15:19;;;;;;;12.90;5.47;;;7.40;99.90;;;;;;5106944;28;20047;-85
2022/11/25 03:17:45;;;;;;;14.52;6.13;;;7.40;99.90;;;;;;5107764;28;20044;-84
2022/11/25 03:20:12;;;;;;;15.93;5.50;;;7.50;99.90;;;;;;5102288;28;20097;-85
2022/11/25 03:22:38;;;;;;;12.32;5.90;;;7.50;99.90;;;;;;5107169;28;20047;-84
2022/11/25 03:25:04;;;;;;;21.63;5.68;;;7.50;99.90;;;;;;5105832;28;20047;-84
2022/11/25 03:27:32;;;;;;;19.80;6.00;;;7.50;99.90;;;;;;5106240;28;20123;-85
2022/11/25 03:29:58;;;;;;;18.67;6.00;;;7.50;99.90;;;;;;5107455;28;20093;-85
2022/11/25 03:32:23;;;;;;;16.35;5.95;;;7.50;99.90;;;;;;5085500;28;20047;-85
2022/11/25 03:34:49;;;;;;;14.13;5.38;;;7.50;99.90;;;;;;5105752;28;20092;-85
2022/11/25 03:37:15;;;;;;;16.13;5.85;;;7.50;99.90;;;;;;5103233;28;20073;-85
2022/11/25 03:39:40;;;;;;;16.90;5.47;;;7.60;99.90;;;;;;5105381;28;20806;-85
2022/11/25 03:42:06;;;;;;;16.98;6.10;;;7.60;99.90;;;;;;5104080;28;20383;-86
2022/11/25 03:44:31;;;;;;;15.43;5.47;;;7.60;99.90;;;;;;5107546;28;20036;-85
2022/11/25 03:46:57;;;;;;;18.48;5.97;;;7.60;99.90;;;;;;5104615;28;20047;-85
2022/11/25 03:49:22;;;;;;;17.63;6.15;;;7.60;99.90;;;;;;5101160;28;20051;-85
2022/11/25 03:51:48;;;;;;;19.23;5.95;;;7.60;99.90;;;;;;5096535;28;20047;-85
2022/11/25 03:54:14;;;;;;;18.73;6.20;;;7.60;99.90;;;;;;5104886;28;20409;-85
2022/11/25 03:56:39;;;;;;;13.32;5.72;;;7.60;99.90;;;;;;5103707;28;20048;-85
2022/11/25 03:59:05;;;;;;;13.00;5.47;;;7.60;99.90;;;;;;5096996;28;20410;-85
2022/11/25 04:01:30;;;;;;;14.05;5.15;;;7.50;99.90;;;;;;5095501;28;20038;-85
2022/11/25 04:03:56;;;;;;;16.35;5.30;;;7.50;99.90;;;;;;5105633;28;22576;-85
2022/11/25 04:06:22;;;;;;;16.33;4.85;;;7.60;99.90;;;;;;5106020;28;20047;-85
2022/11/25 04:08:49;;;;;;;19.50;5.63;;;7.60;99.90;;;;;;5105391;28;20059;-85
2022/11/25 04:11:14;;;;;;;16.83;6.32;;;7.60;99.90;;;;;;5099650;28;20486;-85
2022/11/25 04:13:40;;;;;;;13.50;5.80;;;7.60;99.90;;;;;;5105347;28;20129;-85
2022/11/25 04:16:05;;;;;;;18.88;5.45;;;7.60;99.90;;;;;;5106737;28;20047;-85
2022/11/25 04:18:31;;;;;;;20.23;5.82;;;7.60;99.90;;;;;;5104947;28;20051;-85
2022/11/25 04:20:57;;;;;;;21.02;6.32;;;7.70;99.90;;;;;;5103926;28;20126;-86
2022/11/25 04:23:23;;;;;;;18.23;6.43;;;7.70;99.90;;;;;;5106935;28;20496;-86
2022/11/25 04:25:49;;;;;;;19.02;6.35;;;7.60;99.90;;;;;;5098111;28;20074;-85
2022/11/25 04:28:15;;;;;;;15.50;5.70;;;7.70;99.90;;;;;;5084112;28;20040;-85
2022/11/25 04:30:41;;;;;;;25.15;6.60;;;7.70;99.90;;;;;;5105908;28;20023;-86
2022/11/25 04:33:06;;;;;;;16.75;6.13;;;7.70;99.90;;;;;;5103834;28;20039;-86
2022/11/25 04:35:32;;;;;;;23.67;6.25;;;7.70;99.90;;;;;;5126119;27;20502;-85
2022/11/25 04:37:58;;;;;;;21.70;6.35;;;7.70;99.90;;;;;;5107936;28;20040;-85
2022/11/25 04:40:24;;;;;;;19.13;6.43;;;7.70;99.90;;;;;;5105457;28;20043;-86
2022/11/25 04:42:49;;;;;;;19.85;6.72;;;7.70;99.90;;;;;;5106501;28;20180;-85
2022/11/25 04:45:16;;;;;;;15.25;5.45;;;7.70;99.90;;;;;;5108604;28;20157;-85
2022/11/25 04:47:46;;;;;;;19.70;6.63;;;7.70;99.90;;;;;;5108256;28;20141;-86
2022/11/25 04:50:15;;;;;;;21.92;6.68;;;7.70;99.90;;;;;;5106079;28;20092;-85
2022/11/25 04:52:40;;;;;;;23.30;7.10;;;7.70;99.90;;;;;;5109032;28;20101;-85
2022/11/25 04:55:06;;;;;;;14.68;6.60;;;7.60;99.90;;;;;;5090437;28;20043;-86
2022/11/25 04:57:32;;;;;;;21.88;7.38;;;7.60;99.90;;;;;;5106770;28;20047;-86
2022/11/25 05:00:00;;;;;;;18.05;6.60;;;7.60;99.90;;;;;;5108918;28;20039;-85
2022/11/25 05:02:27;;;;;;;17.05;7.25;;;7.60;99.90;;;;;;5108387;28;20497;-86
2022/11/25 05:04:55;;;;;;;20.85;7.40;;;7.60;99.90;;;;;;5107724;27;20396;-86
2022/11/25 05:07:22;;;;;;;20.08;8.15;;;7.60;99.90;;;;;;5107403;28;20043;-86
2022/11/25 05:09:48;;;;;;;19.55;7.43;;;7.60;99.90;;;;;;5107295;28;20050;-85
2022/11/25 05:12:25;;;;;;;22.70;7.65;;;7.60;99.90;;;;;;5104814;28;20047;-85
2022/11/25 05:14:53;;;;;;;20.80;7.72;;;7.60;99.90;;;;;;5106923;28;20130;-86
2022/11/25 05:17:21;;;;;;;26.15;8.07;;;7.50;99.90;;;;;;5109698;28;20155;-86
2022/11/25 05:19:48;;;;;;;21.23;7.05;;;7.60;99.90;;;;;;5096412;28;20048;-86
2022/11/25 05:22:16;;;;;;;16.20;7.43;;;7.60;99.90;;;;;;5108010;28;20417;-86
2022/11/25 05:25:04;;;;;;;18.27;7.45;;;7.60;99.90;;;;;;5109809;28;20109;-86
2022/11/25 05:27:30;;;;;;;21.52;7.65;;;8.00;99.90;;;;;;5083496;28;20044;-85
2022/11/25 05:29:58;;;;;;;20.15;7.63;;;7.50;99.90;;;;;;5106405;28;20035;-84
2022/11/25 05:32:27;;;;;;;16.88;8.15;;;7.60;99.90;;;;;;5088103;28;20410;-85
2022/11/25 05:34:52;;;;;;;16.17;7.25;;;8.10;99.90;;;;;;5105880;28;20043;-87
2022/11/25 05:37:18;;;;;;;20.45;7.50;;;7.50;99.90;;;;;;5107468;28;20043;-86
2022/11/25 05:39:49;;;;;;;15.23;7.07;;;7.60;99.90;;;;;;5107692;27;20054;-85
2022/11/25 05:42:17;;;;;;;21.10;8.13;;;7.60;99.90;;;;;;5123843;27;20567;-86
2022/11/25 05:44:46;;;;;;;21.38;8.60;;;7.80;99.90;;;;;;5107927;28;20123;-86
2022/11/25 05:47:14;;;;;;;19.23;7.40;;;7.70;99.90;;;;;;5107703;28;20130;-86
2022/11/25 05:49:40;;;;;;;16.67;8.30;;;7.60;99.90;;;;;;5108052;28;20664;-87
2022/11/25 05:52:05;;;;;;;18.85;6.85;;;7.60;99.90;;;;;;5108542;28;20126;-86
2022/11/25 05:54:31;;;;;;;20.67;9.38;;;7.60;99.90;;;;;;5106272;28;20173;-86
2022/11/25 05:56:56;;;;;;;21.13;8.20;;;7.60;99.90;;;;;;5105745;28;20122;-86
2022/11/25 05:59:22;;;;;;;19.73;8.82;;;7.70;99.90;;;;;;5108118;28;20075;-86
2022/11/25 06:01:47;;;;;;;18.67;8.45;;;7.70;99.90;;;;;;5108346;28;20075;-86
2022/11/25 06:04:13;;;;;;;20.52;8.70;;;7.70;99.90;;;;;;5105362;28;20048;-86
2022/11/25 06:06:39;;;;;;;13.07;7.18;;;7.70;99.90;;;;;;5108521;28;20050;-86
2022/11/25 06:09:04;;;;;;;15.98;7.10;;;7.70;99.90;;;;;;5106693;28;20027;-86
2022/11/25 06:11:30;;;;;;;16.52;7.85;;;7.70;99.90;;;;;;5091756;28;20038;-86
2022/11/25 06:13:57;;;;;;;18.15;7.20;;;7.70;99.90;;;;;;5087046;28;21136;-86
2022/11/25 06:16:23;;;;;;;23.02;7.25;;;7.70;99.90;;;;;;5104782;28;20043;-86
2022/11/25 06:18:51;;;;;;;17.13;6.95;;;7.70;99.90;;;;;;5108669;28;20051;-86
2022/11/25 06:21:20;;;;;;;17.08;6.57;;;7.80;99.90;;;;;;5106359;28;20043;-86
2022/11/25 06:23:46;;;;;;;17.30;6.28;;;7.70;99.90;;;;;;5107164;28;20035;-86
2022/11/25 06:26:19;;;;;;;20.15;7.13;;;7.70;99.90;;;;;;5103211;28;20105;-85
2022/11/25 06:28:46;;;;;;;13.23;5.75;;;7.80;99.90;;;;;;5099177;28;20580;-86
2022/11/25 06:31:20;;;;;;;16.60;5.80;;;7.70;99.90;;;;;;5105655;28;20040;-86
2022/11/25 06:33:47;;;;;;;16.98;5.78;;;7.70;99.90;;;;;;5089098;28;20489;-87
2022/11/25 06:36:16;;;;;;;17.15;6.50;;;7.80;99.90;;;;;;5105353;28;20055;-86
2022/11/25 06:38:46;;;;;;;18.25;7.28;;;7.80;99.90;;;;;;5106148;28;20051;-86
2022/11/25 06:41:12;;;;;;;20.35;6.78;;;7.80;99.90;;;;;;5107944;28;20405;-85
2022/11/25 06:43:38;;;;;;;22.10;7.35;;;7.80;99.90;;;;;;5124199;27;20055;-85
2022/11/25 06:46:05;;;;;;;16.67;6.38;;;7.80;99.90;;;;;;5103116;27;20039;-85
2022/11/25 06:48:32;;;;;;;31.45;6.55;;;7.80;99.90;;;;;;5110257;27;20497;-86
2022/11/25 06:51:03;;;;;;;19.33;5.82;;;7.80;99.90;;;;;;5107337;28;20047;-85
2022/11/25 06:53:30;;;;;;;16.58;6.28;;;7.80;99.90;;;;;;5104876;28;20036;-85
2022/11/25 06:56:13;;;;;;;16.60;6.00;;;7.80;99.90;;;;;;5106488;28;20039;-85
2022/11/25 06:58:40;;;;;;;18.42;5.18;;;7.80;99.90;;;;;;5105457;28;20051;-85
2022/11/25 07:01:24;;;;;;;16.70;6.22;;;7.80;99.90;;;;;;5108328;28;20050;-85
2022/11/25 07:03:52;;;;;;;10.68;5.15;;;7.80;99.90;;;;;;5109059;28;20525;-86
2022/11/25 07:06:19;;;;;;;22.65;10.23;;;7.80;99.90;;;;;;5107524;28;20127;-86
2022/11/25 07:08:45;;;;;;;14.05;7.55;;;7.80;99.90;;;;;;5108262;28;20043;-85
2022/11/25 07:11:21;;;;;;;21.05;10.10;;;7.90;99.90;;;;;;5105309;28;20036;-86
2022/11/25 07:13:50;;;;;;;13.98;6.22;;;7.80;99.90;;;;;;5108575;28;20062;-85
2022/11/25 07:16:15;;;;;;;12.10;5.07;;;7.80;99.90;;;;;;5107167;28;20043;-85
2022/11/25 07:18:41;;;;;;;16.05;4.95;;;7.70;99.90;;;;;;5108136;28;20093;-85
2022/11/25 07:21:13;;;;;;;11.88;4.10;;;7.60;99.90;;;;;;5107788;28;20086;-86
2022/11/25 07:23:39;;;;;;;13.70;4.32;;;7.50;99.90;;;;;;5107400;28;20040;-86
2022/11/25 07:26:07;;;;;;;15.13;4.05;;;7.50;99.90;;;;;;5110827;27;20043;-86
2022/11/25 07:28:34;;;;;;;9.93;3.60;;;7.40;99.90;;;;;;5107711;28;20592;-86
2022/11/25 07:31:07;;;;;;;8.43;3.80;;;7.40;99.90;;;;;;5105267;28;20086;-86
2022/11/25 07:33:33;;;;;;;12.73;4.90;;;7.30;99.90;;;;;;5093489;28;20116;-86
2022/11/25 07:36:04;;;;;;;7.75;3.85;;;7.30;99.90;;;;;;5106958;28;20083;-83
2022/11/25 07:38:30;;;;;;;13.25;4.38;;;7.20;99.90;;;;;;5106916;28;20703;-82
2022/11/25 07:41:01;;;;;;;16.58;4.43;;;7.10;99.90;;;;;;5107326;28;20043;-83
2022/11/25 07:43:27;;;;;;;12.68;4.15;;;7.10;99.90;;;;;;5106652;28;20051;-83
2022/11/25 07:45:52;;;;;;;9.80;3.67;;;7.00;99.90;;;;;;5107670;28;20675;-84
2022/11/25 07:48:18;;;;;;;9.55;3.03;;;7.10;99.90;;;;;;5108177;28;20756;-82
2022/11/25 07:50:45;;;;;;;11.57;3.85;;;7.10;99.90;;;;;;5106672;28;20109;-83
2022/11/25 07:53:11;;;;;;;10.40;3.75;;;7.10;99.90;;;;;;5103329;28;20127;-83
2022/11/25 07:55:36;;;;;;;9.65;3.53;;;7.10;99.90;;;;;;5102024;28;20158;-84
2022/11/25 07:58:02;;;;;;;8.18;3.20;;;7.10;99.90;;;;;;5107360;28;20073;-84
2022/11/25 08:00:28;;;;;;;11.40;4.00;;;;;;;;;;5120451;28;20396;-84
2022/11/25 08:02:54;;;;;;;11.10;4.35;;;7.00;99.90;;;;;;5100018;28;20043;-84
2022/11/25 08:05:20;;;;;;;12.43;4.55;;;6.90;99.90;;;;;;5107103;28;20778;-83
2022/11/25 08:07:45;;;;;;;11.20;4.30;;;6.90;99.90;;;;;;5111054;28;20047;-84
2022/11/25 08:10:11;;;;;;;11.45;3.72;;;7.00;99.90;;;;;;5111069;28;20043;-83
2022/11/25 08:12:36;;;;;;;10.82;3.90;;;7.00;99.90;;;;;;5110641;28;20052;-83
2022/11/25 08:15:02;;;;;;;13.93;4.18;;;6.90;99.90;;;;;;5109711;28;20489;-83
2022/11/25 08:17:28;;;;;;;12.25;3.97;;;7.00;99.90;;;;;;5110712;28;20087;-83
2022/11/25 08:19:54;;;;;;;11.48;3.63;;;6.90;99.90;;;;;;5126945;27;20561;-83
2022/11/25 08:22:19;;;;;;;8.80;4.53;;;6.90;99.90;;;;;;5111057;28;20084;-83
2022/11/25 08:24:45;;;;;;;11.43;4.15;;;7.00;99.90;;;;;;5111716;28;20059;-83
2022/11/25 08:27:10;;;;;;;15.30;4.32;;;7.00;99.90;;;;;;5126241;27;20086;-83
2022/11/25 08:29:36;;;;;;;8.85;4.97;;;7.10;99.90;;;;;;5127144;27;20140;-83
2022/11/25 08:32:01;;;;;;;13.82;6.38;;;7.10;99.90;;;;;;5109626;28;20051;-83
2022/11/25 08:34:27;;;;;;;15.90;7.28;;;7.10;99.90;;;;;;5110264;28;20058;-83
2022/11/25 08:36:53;;;;;;;12.85;5.65;;;7.20;99.90;;;;;;5110690;28;20509;-83
2022/11/25 08:39:20;;;;;;;14.98;5.53;;;7.20;99.90;;;;;;5111087;28;20047;-83
2022/11/25 08:41:45;;;;;;;12.45;5.05;;;7.20;99.90;;;;;;5092605;28;20191;-83
2022/11/25 08:44:12;;;;;;;11.38;4.88;;;7.20;99.90;;;;;;5110740;28;20183;-83
2022/11/25 08:46:38;;;;;;;13.65;5.32;;;7.30;99.90;;;;;;5110366;28;20528;-83
2022/11/25 08:49:05;;;;;;;16.50;5.32;;;7.30;99.90;;;;;;5110202;28;20043;-83
2022/11/25 08:51:33;;;;;;;15.52;5.32;;;7.40;99.90;;;;;;5111176;28;20053;-83
2022/11/25 08:53:58;;;;;;;15.90;6.20;;;7.40;99.90;;;;;;5111001;28;20043;-83
2022/11/25 08:56:25;;;;;;;15.73;6.38;;;7.50;99.90;;;;;;5110595;28;20519;-83
2022/11/25 08:58:51;;;;;;;11.77;5.70;;;7.70;99.90;;;;;;5110846;28;20450;-83
2022/11/25 09:01:18;;;;;;;14.88;5.78;;;7.70;99.90;;;;;;5110573;28;20114;-83
2022/11/25 09:03:48;;;;;;;16.45;5.68;;;7.90;99.90;;;;;;5091572;28;20048;-83
2022/11/25 09:06:14;;;;;;;15.85;5.63;;;7.90;99.90;;;;;;5108846;28;20054;-83
2022/11/25 09:08:41;;;;;;;15.48;5.28;;;7.90;99.90;;;;;;5126224;27;20492;-83
2022/11/25 09:11:07;;;;;;;14.93;6.13;;;7.90;99.90;;;;;;5109870;28;20047;-83
2022/11/25 09:13:32;;;;;;;13.00;6.10;;;7.90;99.90;;;;;;5110320;28;20051;-83
2022/11/25 09:16:00;;;;;;;13.35;5.60;;;7.90;99.90;;;;;;5109516;28;20046;-83
2022/11/25 09:18:25;;;;;;;14.70;6.13;;;8.00;99.90;;;;;;5108252;28;20500;-83
2022/11/25 09:20:52;;;;;;;11.00;5.88;;;8.00;99.90;;;;;;5107763;28;20150;-83
2022/11/25 09:23:19;;;;;;;13.55;6.32;;;8.00;99.90;;;;;;5107426;28;20047;-84
2022/11/25 09:25:57;;;;;;;14.55;6.07;;;8.00;99.90;;;;;;5107999;28;20035;-82
2022/11/25 09:28:24;;;;;;;15.57;6.25;;;8.00;99.90;;;;;;5110604;28;20055;-82
2022/11/25 09:30:50;;;;;;;13.95;5.90;;;8.10;99.90;;;;;;5110004;28;20150;-82
2022/11/25 09:33:17;;;;;;;12.73;5.80;;;8.10;99.90;;;;;;5106564;28;20039;-82
2022/11/25 09:35:42;;;;;;;11.43;6.20;;;8.20;99.90;;;;;;5105140;27;20064;-82
2022/11/25 09:38:08;;;;;;;10.98;5.78;;;8.20;99.90;;;;;;5106676;28;20069;-82
2022/11/25 09:40:52;;;;;;;9.57;5.43;;;8.20;99.90;;;;;;5110304;28;20062;-82
2022/11/25 09:46:41;;;;;;;12.57;5.65;;;8.40;99.90;;;;;;5109767;28;20056;-83
2022/11/25 09:49:39;;;;;;;12.88;4.85;;;8.40;99.90;;;;;;5110119;28;20404;-81
2022/11/25 09:52:17;;;;;;;10.35;5.18;;;8.50;99.90;;;;;;5106671;28;20430;-81
2022/11/25 09:55:17;;;;;;;11.60;6.15;;;8.50;99.90;;;;;;5106268;28;20096;-81
2022/11/25 09:58:10;;;;;;;12.00;6.55;;;8.60;99.90;;;;;;5102203;28;20509;-81
2022/11/25 10:00:39;;;;;;;;;;;8.70;99.90;;;;;;5108950;28;20039;-81
2022/11/25 10:03:17;;;;;;;11.07;5.40;;;8.70;99.90;;;;;;5109554;28;20233;-82
2022/11/25 10:05:46;;;;;;;15.43;6.40;;;;;;;;;;5107696;28;20497;-82
2022/11/25 10:08:15;;;;;;;10.10;4.95;;;;;;;;;;5108077;28;20051;-81
2022/11/25 10:10:46;;;;;;;10.38;4.82;;;9.10;99.90;;;;;;5109713;28;20047;-81
2022/11/25 10:13:27;;;;;;;11.35;5.32;;;;;;;;;;5108146;28;20065;-82
2022/11/25 10:15:58;;;;;;;11.85;5.03;;;9.00;99.90;;;;;;5109119;28;20043;-82
2022/11/25 10:18:33;;;;;;;7.63;4.15;;;8.90;99.90;;;;;;5109486;28;20044;-82
2022/11/25 10:20:59;;;;;;;9.52;4.45;;;9.30;99.90;;;;;;5105271;28;20051;-82
2022/11/25 10:23:32;;;;;;;8.45;4.07;;;;;;;;;;5105906;28;20047;-83
2022/11/25 10:26:02;;;;;;;9.63;4.40;;;9.30;99.90;;;;;;5108193;28;20047;-81
2022/11/25 10:28:33;;;;;;;9.82;3.85;;;9.50;99.90;;;;;;5106791;28;20068;-84
2022/11/25 10:31:18;;;;;;;7.82;4.03;;;9.30;99.90;;;;;;5106652;28;20047;-82
2022/11/25 10:33:48;;;;;;;9.00;4.25;;;9.50;99.90;;;;;;5104203;28;20551;-82
2022/11/25 10:36:34;;;;;;;10.32;3.80;;;;;;;;;;5090520;28;20512;-82
2022/11/25 10:39:12;;;;;;;7.07;3.83;;;;;;;;;;5090532;28;20067;-83
2022/11/25 10:41:47;;;;;;;7.78;4.15;;;9.50;99.90;;;;;;5105522;28;20560;-83
2022/11/25 10:44:28;;;;;;;9.02;3.70;;;9.60;99.90;;;;;;5106433;28;20071;-84
2022/11/25 10:47:15;;;;;;;4.55;3.22;;;9.60;99.90;;;;;;5086548;28;20047;-84
2022/11/25 10:50:27;;;;;;;8.93;3.60;;;9.70;99.90;;;;;;5070649;28;20040;-84
2022/11/25 10:52:56;;;;;;;7.40;2.85;;;9.80;99.90;;;;;;5081645;28;20150;-83
2022/11/25 10:55:25;;;;;;;11.00;3.92;;;10.10;99.90;;;;;;5105667;28;20055;-84
2022/11/25 10:57:52;;;;;;;8.77;4.30;;;10.10;99.90;;;;;;5107530;28;20477;-83
2022/11/25 11:00:30;;;;;;;9.50;3.35;;;9.70;99.90;;;;;;5090494;28;20417;-83
2022/11/25 11:02:57;;;;;;;7.28;3.30;;;;;;;;;;5107071;28;20048;-85
2022/11/25 11:05:28;;;;;;;10.43;4.60;;;8.30;99.90;;;;;;5107437;28;20055;-84
2022/11/25 11:08:09;;;;;;;6.10;3.45;;;;;;;;;;5106079;28;20054;-83
2022/11/25 11:10:35;;;;;;;7.30;3.53;;;10.00;99.90;;;;;;5089310;28;20391;-82
2022/11/25 11:13:18;;;;;;;7.78;3.03;;;10.30;99.90;;;;;;5103436;28;20131;-83
2022/11/25 11:15:46;;;;;;;6.28;2.45;;;10.20;99.90;;;;;;5088774;28;20058;-84
2022/11/25 11:18:22;;;;;;;6.82;2.58;;;10.30;99.90;;;;;;5105863;28;20039;-85
2022/11/25 11:20:53;;;;;;;6.03;2.72;;;10.20;99.90;;;;;;5105660;28;20054;-86
2022/11/25 11:23:19;;;;;;;12.63;3.60;;;10.00;99.90;;;;;;5104063;28;20044;-85
2022/11/25 11:26:08;;;;;;;7.80;3.17;;;10.00;99.90;;;;;;5100620;28;20035;-83
2022/11/25 11:28:35;;;;;;;6.75;2.95;;;10.30;99.90;;;;;;5104345;27;20048;-84
2022/11/25 11:31:23;;;;;;;10.77;2.90;;;10.10;99.90;;;;;;5106502;28;20066;-84
2022/11/25 11:34:17;;;;;;;8.50;2.42;;;10.30;99.90;;;;;;5086700;28;20397;-84
2022/11/25 11:36:55;;;;;;;4.75;2.60;;;10.20;99.90;;;;;;5106182;28;20126;-84
2022/11/25 11:39:52;;;;;;;8.20;2.70;;;10.50;99.90;;;;;;5104568;28;20044;-85
2022/11/25 11:42:44;;;;;;;6.72;2.80;;;10.60;99.90;;;;;;5104760;28;20067;-84
2022/11/25 11:45:29;;;;;;;8.70;2.67;;;10.60;99.90;;;;;;5105253;28;20043;-84
2022/11/25 11:48:27;;;;;;;7.60;2.50;;;10.70;99.90;;;;;;5082092;28;20071;-85
2022/11/25 11:51:06;;;;;;;7.95;2.47;;;10.70;99.90;;;;;;5103920;28;20109;-84
2022/11/25 11:53:57;;;;;;;7.18;2.58;;;10.80;99.90;;;;;;5104888;28;20048;-84
2022/11/25 11:56:34;;;;;;;9.52;3.05;;;10.80;99.90;;;;;;5105414;28;20027;-83
2022/11/25 11:59:15;;;;;;;9.20;3.03;;;10.70;99.90;;;;;;5105081;28;20139;-83
2022/11/25 12:02:16;;;;;;;9.98;3.05;;;10.90;99.90;;;;;;5088877;28;20083;-83
2022/11/25 12:04:54;;;;;;;8.35;2.88;;;10.90;99.90;;;;;;5103539;28;20190;-83
2022/11/25 12:07:35;;;;;;;4.82;2.47;;;10.70;99.90;;;;;;5095674;28;20310;-83
2022/11/25 12:10:18;;;;;;;6.57;2.90;;;10.90;99.90;;;;;;5089236;28;20047;-82
2022/11/25 12:12:57;;;;;;;6.70;2.20;;;11.00;99.90;;;;;;5102420;28;20043;-82
2022/11/25 12:15:47;;;;;;;6.82;2.80;;;10.90;99.90;;;;;;5093591;28;20108;-84
2022/11/25 12:18:39;;;;;;;9.20;2.85;;;10.80;99.90;;;;;;5104917;28;20048;-83
2022/11/25 12:21:23;;;;;;;8.00;2.83;;;10.60;99.90;;;;;;5100854;28;20087;-83
2022/11/25 12:23:55;;;;;;;9.45;3.28;;;;;;;;;;5106324;28;20040;-83
2022/11/25 12:26:29;;;;;;;8.13;2.75;;;10.70;99.90;;;;;;5106797;28;20086;-84
2022/11/25 12:29:03;;;;;;;7.68;2.92;;;10.70;99.90;;;;;;5105093;28;20051;-83
2022/11/25 12:31:38;;;;;;;6.57;2.80;;;10.70;99.90;;;;;;5106668;28;20480;-83
2022/11/25 12:34:20;;;;;;;8.05;2.75;;;11.40;99.90;;;;;;5106522;28;20053;-83
2022/11/25 12:36:46;;;;;;;11.82;3.00;;;10.60;99.90;;;;;;5089469;28;20459;-85
2022/11/25 12:39:25;;;;;;;9.65;3.47;;;10.60;99.90;;;;;;5106042;28;20111;-83
2022/11/25 12:41:58;;;;;;;8.02;3.28;;;10.50;99.90;;;;;;5087987;28;20094;-83
2022/11/25 12:44:43;;;;;;;13.13;3.17;;;11.10;99.90;;;;;;5103575;28;20043;-83
2022/11/25 12:47:10;;;;;;;8.38;3.22;;;10.50;99.90;;;;;;5089177;28;20048;-85
2022/11/25 12:49:48;;;;;;;7.90;3.15;;;10.40;99.90;;;;;;5104959;28;20044;-84
2022/11/25 12:52:43;;;;;;;8.15;2.88;;;10.40;99.90;;;;;;5073496;28;20047;-85
2022/11/25 12:55:23;;;;;;;8.80;2.95;;;10.40;99.90;;;;;;5109136;28;20051;-85
2022/11/25 12:57:57;;;;;;;8.05;2.92;;;10.50;99.90;;;;;;5109446;28;20051;-85
2022/11/25 13:00:45;;;;;;;9.38;3.10;;;10.50;99.90;;;;;;5109544;28;20341;-84
2022/11/25 13:03:16;;;;;;;8.35;3.00;;;10.50;99.90;;;;;;5078115;28;20056;-85
2022/11/25 13:06:12;;;;;;;9.93;3.17;;;10.60;99.90;;;;;;5088752;28;20055;-85
2022/11/25 13:09:14;;;;;;;11.88;3.05;;;10.60;99.90;;;;;;5075697;28;20119;-84
2022/11/25 13:12:09;;;;;;;7.93;2.40;;;10.60;99.90;;;;;;5100283;28;20047;-85
2022/11/25 13:15:05;;;;;;;8.15;3.63;;;10.60;99.90;;;;;;5092170;28;20059;-84
2022/11/25 13:17:38;;;;;;;13.40;3.10;;;10.70;99.90;;;;;;5108424;28;20031;-85